sensor_id;sensor_type;location;lat;lon;timestamp;pressure;altitude;pressure_sealevel;temperature;humidity
40013;BME280;37387;42.672;23.334;2023-04-09T00:03:33;946.0;;;6.1;100.0
40013;BME280;37387;42.672;23.334;2023-04-09T00:04:33;946.0;;;6.0;100.0
40013;BME280;37387;42.672;23.334;2023-04-09T00:06:33;946.0;;;6.1;100.0
40013;BME280;37387;42.672;23.334;2023-04-09T00:11:33;946.1;;;6.2;100.0
40013;BME280;37387;42.672;23.334;2023-04-09T00:14:33;946.0;;;6.1;100.0
40013;BME280;37387;42.672;23.334;2023-04-09T00:15:33;946.1;;;6.2;100.0
40013;BME280;37387;42.672;23.334;2023-04-09T00:37:33;946.1;;;6.3;100.0
40013;BME280;37387;42.672;23.334;2023-04-09T00:41:33;946.2;;;6.2;100.0
40013;BME280;37387;42.672;23.334;2023-04-09T00:45:33;946.2;;;6.1;100.0
40013;BME280;37387;42.672;23.334;2023-04-09T00:46:33;946.2;;;6.2;100.0
40013;BME280;37387;42.672;23.334;2023-04-09T00:50:33;946.2;;;6.1;100.0
40013;BME280;37387;42.672;23.334;2023-04-09T00:51:33;946.2;;;6.2;100.0
40013;BME280;37387;42.672;23.334;2023-04-09T01:01:33;946.2;;;6.1;100.0
40013;BME280;37387;42.672;23.334;2023-04-09T01:09:34;946.2;;;6.0;100.0
40013;BME280;37387;42.672;23.334;2023-04-09T01:18:34;946.2;;;5.9;100.0
40013;BME280;37387;42.672;23.334;2023-04-09T01:21:33;946.2;;;6.0;100.0
40013;BME280;37387;42.672;23.334;2023-04-09T01:22:38;946.3;;;5.9;100.0
40013;BME280;37387;42.672;23.334;2023-04-09T01:23:42;946.3;;;6.0;100.0
40013;BME280;37387;42.672;23.334;2023-04-09T01:26:37;946.2;;;6.1;100.0
40013;BME280;37387;42.672;23.334;2023-04-09T01:28:34;946.3;;;6.0;100.0
40013;BME280;37387;42.672;23.334;2023-04-09T01:31:34;946.3;;;5.9;100.0
40013;BME280;37387;42.672;23.334;2023-04-09T01:32:33;946.2;;;6.0;100.0
40013;BME280;37387;42.672;23.334;2023-04-09T01:48:33;946.3;;;5.9;100.0
40013;BME280;37387;42.672;23.334;2023-04-09T01:50:33;946.3;;;6.0;100.0
40013;BME280;37387;42.672;23.334;2023-04-09T01:51:33;946.3;;;5.9;100.0
40013;BME280;37387;42.672;23.334;2023-04-09T02:02:34;946.2;;;5.8;100.0
40013;BME280;37387;42.672;23.334;2023-04-09T02:11:33;946.3;;;5.7;100.0
40013;BME280;37387;42.672;23.334;2023-04-09T02:12:35;946.3;;;5.6;100.0
40013;BME280;37387;42.672;23.334;2023-04-09T02:13:33;946.3;;;5.5;100.0
40013;BME280;37387;42.672;23.334;2023-04-09T02:17:33;946.3;;;5.6;100.0
40013;BME280;37387;42.672;23.334;2023-04-09T02:18:33;946.3;;;5.5;100.0
40013;BME280;37387;42.672;23.334;2023-04-09T02:20:33;946.3;;;5.4;100.0
40013;BME280;37387;42.672;23.334;2023-04-09T02:21:33;946.2;;;5.5;100.0
40013;BME280;37387;42.672;23.334;2023-04-09T02:24:33;946.2;;;5.4;100.0
40013;BME280;37387;42.672;23.334;2023-04-09T02:32:33;946.2;;;5.3;100.0
40013;BME280;37387;42.672;23.334;2023-04-09T02:37:33;946.2;;;5.4;100.0
40013;BME280;37387;42.672;23.334;2023-04-09T02:40:33;946.2;;;5.3;100.0
40013;BME280;37387;42.672;23.334;2023-04-09T02:48:33;946.2;;;5.2;100.0
40013;BME280;37387;42.672;23.334;2023-04-09T02:55:33;946.1;;;5.1;100.0
40013;BME280;37387;42.672;23.334;2023-04-09T02:56:33;946.1;;;5.2;100.0
40013;BME280;37387;42.672;23.334;2023-04-09T03:02:33;946.1;;;5.1;100.0
40013;BME280;37387;42.672;23.334;2023-04-09T03:04:33;946.1;;;5.2;100.0
40013;BME280;37387;42.672;23.334;2023-04-09T03:16:33;946.1;;;5.1;100.0
40013;BME280;37387;42.672;23.334;2023-04-09T03:24:33;946.1;;;5.0;100.0
40013;BME280;37387;42.672;23.334;2023-04-09T03:25:33;946.1;;;5.1;100.0
40013;BME280;37387;42.672;23.334;2023-04-09T03:26:33;946.1;;;5.0;100.0
40013;BME280;37387;42.672;23.334;2023-04-09T03:28:33;946.2;;;5.1;100.0
40013;BME280;37387;42.672;23.334;2023-04-09T03:29:33;946.1;;;5.0;100.0
40013;BME280;37387;42.672;23.334;2023-04-09T03:33:33;946.1;;;4.9;100.0
40013;BME280;37387;42.672;23.334;2023-04-09T03:34:33;946.2;;;5.0;100.0
40013;BME280;37387;42.672;23.334;2023-04-09T03:41:33;946.1;;;4.9;100.0
40013;BME280;37387;42.672;23.334;2023-04-09T03:44:33;946.1;;;5.0;100.0
40013;BME280;37387;42.672;23.334;2023-04-09T03:48:33;946.2;;;4.9;100.0
40013;BME280;37387;42.672;23.334;2023-04-09T03:49:33;946.2;;;4.8;100.0
40013;BME280;37387;42.672;23.334;2023-04-09T03:54:33;946.2;;;4.9;100.0
40013;BME280;37387;42.672;23.334;2023-04-09T03:56:33;946.2;;;4.8;100.0
40013;BME280;37387;42.672;23.334;2023-04-09T03:58:33;946.3;;;4.9;100.0
40013;BME280;37387;42.672;23.334;2023-04-09T04:06:33;946.3;;;5.0;100.0
40013;BME280;37387;42.672;23.334;2023-04-09T04:12:33;946.3;;;5.1;100.0
40013;BME280;37387;42.672;23.334;2023-04-09T04:20:33;946.3;;;5.2;100.0
40013;BME280;37387;42.672;23.334;2023-04-09T04:22:33;946.3;;;5.3;100.0
40013;BME280;37387;42.672;23.334;2023-04-09T04:26:33;946.3;;;5.4;100.0
40013;BME280;37387;42.672;23.334;2023-04-09T04:28:33;946.3;;;5.5;100.0
40013;BME280;37387;42.672;23.334;2023-04-09T04:35:33;946.4;;;5.6;100.0
40013;BME280;37387;42.672;23.334;2023-04-09T04:41:33;946.4;;;5.7;100.0
40013;BME280;37387;42.672;23.334;2023-04-09T04:43:33;946.4;;;5.8;100.0
40013;BME280;37387;42.672;23.334;2023-04-09T04:50:33;946.4;;;5.9;100.0
40013;BME280;37387;42.672;23.334;2023-04-09T04:51:33;946.4;;;6.0;100.0
40013;BME280;37387;42.672;23.334;2023-04-09T04:53:33;946.4;;;6.1;100.0
40013;BME280;37387;42.672;23.334;2023-04-09T04:54:33;946.4;;;6.2;100.0
40013;BME280;37387;42.672;23.334;2023-04-09T04:55:34;946.4;;;6.3;100.0
40013;BME280;37387;42.672;23.334;2023-04-09T04:56:33;946.5;;;6.4;100.0
40013;BME280;37387;42.672;23.334;2023-04-09T04:57:33;946.4;;;6.5;100.0
40013;BME280;37387;42.672;23.334;2023-04-09T04:59:35;946.5;;;6.6;100.0
40013;BME280;37387;42.672;23.334;2023-04-09T05:00:33;946.5;;;6.5;100.0
40013;BME280;37387;42.672;23.334;2023-04-09T05:02:33;946.5;;;6.6;100.0
40013;BME280;37387;42.672;23.334;2023-04-09T05:03:33;946.5;;;6.8;100.0
40013;BME280;37387;42.672;23.334;2023-04-09T05:04:33;946.5;;;6.6;100.0
40013;BME280;37387;42.672;23.334;2023-04-09T05:05:33;946.5;;;6.7;100.0
40013;BME280;37387;42.672;23.334;2023-04-09T05:07:33;946.5;;;6.8;100.0
40013;BME280;37387;42.672;23.334;2023-04-09T05:08:33;946.5;;;6.9;100.0
40013;BME280;37387;42.672;23.334;2023-04-09T05:10:33;946.6;;;7.1;100.0
40013;BME280;37387;42.672;23.334;2023-04-09T05:11:33;946.6;;;7.2;100.0
40013;BME280;37387;42.672;23.334;2023-04-09T05:12:33;946.6;;;7.1;100.0
40013;BME280;37387;42.672;23.334;2023-04-09T05:13:33;946.6;;;7.3;100.0
40013;BME280;37387;42.672;23.334;2023-04-09T05:14:33;946.6;;;7.5;100.0
40013;BME280;37387;42.672;23.334;2023-04-09T05:16:33;946.6;;;7.4;100.0
40013;BME280;37387;42.672;23.334;2023-04-09T05:18:33;946.7;;;7.5;100.0
40013;BME280;37387;42.672;23.334;2023-04-09T05:19:33;946.7;;;7.6;100.0
40013;BME280;37387;42.672;23.334;2023-04-09T05:20:33;946.6;;;7.7;100.0
40013;BME280;37387;42.672;23.334;2023-04-09T05:21:33;946.7;;;7.6;100.0
40013;BME280;37387;42.672;23.334;2023-04-09T05:22:33;946.7;;;7.7;100.0
40013;BME280;37387;42.672;23.334;2023-04-09T05:23:33;946.7;;;7.8;100.0
40013;BME280;37387;42.672;23.334;2023-04-09T05:24:33;946.6;;;8.0;100.0
40013;BME280;37387;42.672;23.334;2023-04-09T05:25:33;946.7;;;8.1;100.0
40013;BME280;37387;42.672;23.334;2023-04-09T05:26:33;946.7;;;8.3;100.0
40013;BME280;37387;42.672;23.334;2023-04-09T05:27:33;946.7;;;8.5;100.0
40013;BME280;37387;42.672;23.334;2023-04-09T05:28:33;946.7;;;8.4;100.0
40013;BME280;37387;42.672;23.334;2023-04-09T05:29:33;946.8;;;8.3;100.0
40013;BME280;37387;42.672;23.334;2023-04-09T05:30:33;946.7;;;8.4;100.0
40013;BME280;37387;42.672;23.334;2023-04-09T05:32:33;946.7;;;8.0;100.0
40013;BME280;37387;42.672;23.334;2023-04-09T05:33:33;946.7;;;7.9;100.0
40013;BME280;37387;42.672;23.334;2023-04-09T05:34:33;946.7;;;7.8;100.0
40013;BME280;37387;42.672;23.334;2023-04-09T05:35:33;946.7;;;7.9;100.0
40013;BME280;37387;42.672;23.334;2023-04-09T05:36:33;946.7;;;7.7;100.0
40013;BME280;37387;42.672;23.334;2023-04-09T05:38:33;946.6;;;8.0;100.0
40013;BME280;37387;42.672;23.334;2023-04-09T05:39:33;946.6;;;8.1;100.0
40013;BME280;37387;42.672;23.334;2023-04-09T05:40:33;946.7;;;8.0;100.0
40013;BME280;37387;42.672;23.334;2023-04-09T05:41:33;946.7;;;7.9;100.0
40013;BME280;37387;42.672;23.334;2023-04-09T05:43:33;946.6;;;8.0;100.0
40013;BME280;37387;42.672;23.334;2023-04-09T05:44:33;946.7;;;7.9;100.0
40013;BME280;37387;42.672;23.334;2023-04-09T05:45:33;946.7;;;8.0;100.0
40013;BME280;37387;42.672;23.334;2023-04-09T05:46:33;946.7;;;8.1;100.0
40013;BME280;37387;42.672;23.334;2023-04-09T05:47:33;946.7;;;8.0;100.0
40013;BME280;37387;42.672;23.334;2023-04-09T05:48:33;946.7;;;8.1;100.0
40013;BME280;37387;42.672;23.334;2023-04-09T05:49:33;946.8;;;8.0;100.0
40013;BME280;37387;42.672;23.334;2023-04-09T05:50:33;946.7;;;7.9;100.0
40013;BME280;37387;42.672;23.334;2023-04-09T05:51:33;946.7;;;7.8;100.0
40013;BME280;37387;42.672;23.334;2023-04-09T05:54:34;946.7;;;7.9;100.0
40013;BME280;37387;42.672;23.334;2023-04-09T05:55:33;946.7;;;8.0;100.0
40013;BME280;37387;42.672;23.334;2023-04-09T05:57:33;946.7;;;8.2;100.0
40013;BME280;37387;42.672;23.334;2023-04-09T05:58:33;946.7;;;8.1;100.0
40013;BME280;37387;42.672;23.334;2023-04-09T05:59:33;946.8;;;8.2;100.0
40013;BME280;37387;42.672;23.334;2023-04-09T06:00:33;946.8;;;8.1;100.0
40013;BME280;37387;42.672;23.334;2023-04-09T06:01:33;946.7;;;8.3;100.0
40013;BME280;37387;42.672;23.334;2023-04-09T06:02:33;946.7;;;8.4;100.0
40013;BME280;37387;42.672;23.334;2023-04-09T06:03:33;946.7;;;8.5;100.0
40013;BME280;37387;42.672;23.334;2023-04-09T06:04:33;946.7;;;8.6;100.0
40013;BME280;37387;42.672;23.334;2023-04-09T06:06:33;946.8;;;8.7;100.0
40013;BME280;37387;42.672;23.334;2023-04-09T06:08:33;946.8;;;8.6;100.0
40013;BME280;37387;42.672;23.334;2023-04-09T06:09:33;946.8;;;8.7;100.0
40013;BME280;37387;42.672;23.334;2023-04-09T06:10:33;946.7;;;8.3;100.0
40013;BME280;37387;42.672;23.334;2023-04-09T06:11:33;946.8;;;8.6;100.0
40013;BME280;37387;42.672;23.334;2023-04-09T06:12:33;946.8;;;8.7;100.0
40013;BME280;37387;42.672;23.334;2023-04-09T06:14:33;946.8;;;8.8;100.0
40013;BME280;37387;42.672;23.334;2023-04-09T06:17:33;946.8;;;9.1;100.0
40013;BME280;37387;42.672;23.334;2023-04-09T06:18:33;946.8;;;8.6;100.0
40013;BME280;37387;42.672;23.334;2023-04-09T06:19:33;946.8;;;8.8;100.0
40013;BME280;37387;42.672;23.334;2023-04-09T06:20:33;946.9;;;8.7;100.0
40013;BME280;37387;42.672;23.334;2023-04-09T06:21:33;946.8;;;9.0;100.0
40013;BME280;37387;42.672;23.334;2023-04-09T06:22:33;946.9;;;9.3;100.0
40013;BME280;37387;42.672;23.334;2023-04-09T06:23:33;946.9;;;9.6;100.0
40013;BME280;37387;42.672;23.334;2023-04-09T06:24:33;946.8;;;9.9;100.0
40013;BME280;37387;42.672;23.334;2023-04-09T06:25:33;946.9;;;9.6;100.0
40013;BME280;37387;42.672;23.334;2023-04-09T06:26:32;946.9;;;9.7;100.0
40013;BME280;37387;42.672;23.334;2023-04-09T06:27:33;946.8;;;10.1;100.0
40013;BME280;37387;42.672;23.334;2023-04-09T06:28:33;946.8;;;9.9;100.0
40013;BME280;37387;42.672;23.334;2023-04-09T06:29:32;946.8;;;9.8;100.0
40013;BME280;37387;42.672;23.334;2023-04-09T06:30:33;946.8;;;9.5;100.0
40013;BME280;37387;42.672;23.334;2023-04-09T06:31:33;946.9;;;9.8;100.0
40013;BME280;37387;42.672;23.334;2023-04-09T06:32:32;946.8;;;9.7;100.0
40013;BME280;37387;42.672;23.334;2023-04-09T06:34:33;946.9;;;9.6;100.0
40013;BME280;37387;42.672;23.334;2023-04-09T06:35:32;946.9;;;9.7;100.0
40013;BME280;37387;42.672;23.334;2023-04-09T06:37:33;946.8;;;10.1;100.0
40013;BME280;37387;42.672;23.334;2023-04-09T06:38:33;946.9;;;10.5;100.0
40013;BME280;37387;42.672;23.334;2023-04-09T06:39:33;946.9;;;10.3;100.0
40013;BME280;37387;42.672;23.334;2023-04-09T06:40:32;946.9;;;10.4;100.0
40013;BME280;37387;42.672;23.334;2023-04-09T06:41:33;946.9;;;11.0;100.0
40013;BME280;37387;42.672;23.334;2023-04-09T06:42:33;947.0;;;11.7;100.0
40013;BME280;37387;42.672;23.334;2023-04-09T06:43:33;947.0;;;11.5;100.0
40013;BME280;37387;42.672;23.334;2023-04-09T06:44:33;947.0;;;11.9;96.0
40013;BME280;37387;42.672;23.334;2023-04-09T06:45:33;947.0;;;12.0;95.3
40013;BME280;37387;42.672;23.334;2023-04-09T06:46:33;947.0;;;12.1;92.1
40013;BME280;37387;42.672;23.334;2023-04-09T06:47:33;947.0;;;12.3;90.8
40013;BME280;37387;42.672;23.334;2023-04-09T06:48:33;947.0;;;12.2;88.0
40013;BME280;37387;42.672;23.334;2023-04-09T06:49:33;947.0;;;11.9;86.6
40013;BME280;37387;42.672;23.334;2023-04-09T06:50:33;947.0;;;11.4;90.5
40013;BME280;37387;42.672;23.334;2023-04-09T06:51:33;947.0;;;11.3;92.6
40013;BME280;37387;42.672;23.334;2023-04-09T06:52:33;947.0;;;10.6;92.2
40013;BME280;37387;42.672;23.334;2023-04-09T06:53:33;947.0;;;10.1;99.2
40013;BME280;37387;42.672;23.334;2023-04-09T06:54:33;947.0;;;10.2;100.0
40013;BME280;37387;42.672;23.334;2023-04-09T06:55:33;947.0;;;10.0;100.0
40013;BME280;37387;42.672;23.334;2023-04-09T06:56:33;947.0;;;9.9;100.0
40013;BME280;37387;42.672;23.334;2023-04-09T06:57:33;947.0;;;9.5;100.0
40013;BME280;37387;42.672;23.334;2023-04-09T06:58:33;947.0;;;9.3;100.0
40013;BME280;37387;42.672;23.334;2023-04-09T07:00:33;947.0;;;9.6;100.0
40013;BME280;37387;42.672;23.334;2023-04-09T07:01:33;946.9;;;9.9;100.0
40013;BME280;37387;42.672;23.334;2023-04-09T07:02:33;947.0;;;10.2;100.0
40013;BME280;37387;42.672;23.334;2023-04-09T07:03:33;947.0;;;9.7;100.0
40013;BME280;37387;42.672;23.334;2023-04-09T07:04:33;946.9;;;9.9;100.0
40013;BME280;37387;42.672;23.334;2023-04-09T07:05:33;946.9;;;10.2;100.0
40013;BME280;37387;42.672;23.334;2023-04-09T07:06:33;946.9;;;10.1;100.0
40013;BME280;37387;42.672;23.334;2023-04-09T07:07:33;946.9;;;10.2;100.0
40013;BME280;37387;42.672;23.334;2023-04-09T07:08:33;946.9;;;10.4;100.0
40013;BME280;37387;42.672;23.334;2023-04-09T07:09:33;947.0;;;10.5;97.7
40013;BME280;37387;42.672;23.334;2023-04-09T07:10:33;947.0;;;10.4;97.7
40013;BME280;37387;42.672;23.334;2023-04-09T07:12:33;947.0;;;10.3;98.7
40013;BME280;37387;42.672;23.334;2023-04-09T07:14:33;947.0;;;10.2;99.7
40013;BME280;37387;42.672;23.334;2023-04-09T07:15:33;947.0;;;10.3;100.0
40013;BME280;37387;42.672;23.334;2023-04-09T07:16:33;947.0;;;10.1;100.0
40013;BME280;37387;42.672;23.334;2023-04-09T07:17:33;946.9;;;10.2;100.0
40013;BME280;37387;42.672;23.334;2023-04-09T07:18:33;947.0;;;9.8;100.0
40013;BME280;37387;42.672;23.334;2023-04-09T07:19:33;947.1;;;9.7;100.0
40013;BME280;37387;42.672;23.334;2023-04-09T07:20:33;947.1;;;9.4;100.0
40013;BME280;37387;42.672;23.334;2023-04-09T07:21:33;946.9;;;9.6;100.0
40013;BME280;37387;42.672;23.334;2023-04-09T07:22:33;947.0;;;9.1;100.0
40013;BME280;37387;42.672;23.334;2023-04-09T07:23:33;947.0;;;9.0;100.0
40013;BME280;37387;42.672;23.334;2023-04-09T07:24:33;947.0;;;8.9;100.0
40013;BME280;37387;42.672;23.334;2023-04-09T07:27:33;947.0;;;9.1;100.0
40013;BME280;37387;42.672;23.334;2023-04-09T07:28:33;947.0;;;9.2;100.0
40013;BME280;37387;42.672;23.334;2023-04-09T07:29:33;947.0;;;9.1;100.0
40013;BME280;37387;42.672;23.334;2023-04-09T07:30:33;947.2;;;8.8;100.0
40013;BME280;37387;42.672;23.334;2023-04-09T07:31:33;947.1;;;8.7;100.0
40013;BME280;37387;42.672;23.334;2023-04-09T07:32:33;947.1;;;8.8;100.0
40013;BME280;37387;42.672;23.334;2023-04-09T07:33:33;947.0;;;9.0;100.0
40013;BME280;37387;42.672;23.334;2023-04-09T07:34:33;947.0;;;9.1;100.0
40013;BME280;37387;42.672;23.334;2023-04-09T07:35:33;947.0;;;9.2;100.0
40013;BME280;37387;42.672;23.334;2023-04-09T07:36:33;947.0;;;9.3;98.9
40013;BME280;37387;42.672;23.334;2023-04-09T07:37:33;947.0;;;9.7;100.0
40013;BME280;37387;42.672;23.334;2023-04-09T07:38:33;947.0;;;10.1;97.4
40013;BME280;37387;42.672;23.334;2023-04-09T07:39:33;947.0;;;10.2;94.6
40013;BME280;37387;42.672;23.334;2023-04-09T07:40:33;947.0;;;10.6;89.7
40013;BME280;37387;42.672;23.334;2023-04-09T07:41:33;947.0;;;10.8;88.6
40013;BME280;37387;42.672;23.334;2023-04-09T07:42:33;946.9;;;11.0;85.8
40013;BME280;37387;42.672;23.334;2023-04-09T07:43:33;947.0;;;11.4;85.3
40013;BME280;37387;42.672;23.334;2023-04-09T07:44:33;947.2;;;11.3;81.9
40013;BME280;37387;42.672;23.334;2023-04-09T07:45:33;947.0;;;10.9;81.1
40013;BME280;37387;42.672;23.334;2023-04-09T07:47:33;947.1;;;10.6;82.2
40013;BME280;37387;42.672;23.334;2023-04-09T07:48:33;947.1;;;10.4;82.2
40013;BME280;37387;42.672;23.334;2023-04-09T07:50:33;947.1;;;10.2;85.7
40013;BME280;37387;42.672;23.334;2023-04-09T07:51:33;947.1;;;10.3;87.2
40013;BME280;37387;42.672;23.334;2023-04-09T07:55:33;947.1;;;10.1;87.5
40013;BME280;37387;42.672;23.334;2023-04-09T07:56:33;946.9;;;10.5;87.3
40013;BME280;37387;42.672;23.334;2023-04-09T07:57:33;947.1;;;10.8;83.0
40013;BME280;37387;42.672;23.334;2023-04-09T07:58:33;947.1;;;11.0;83.0
40013;BME280;37387;42.672;23.334;2023-04-09T07:59:33;947.1;;;11.4;82.9
40013;BME280;37387;42.672;23.334;2023-04-09T08:00:33;947.2;;;11.1;80.2
40013;BME280;37387;42.672;23.334;2023-04-09T08:01:33;947.2;;;11.4;77.3
40013;BME280;37387;42.672;23.334;2023-04-09T08:02:33;947.2;;;11.0;76.8
40013;BME280;37387;42.672;23.334;2023-04-09T08:03:33;947.2;;;10.6;77.3
40013;BME280;37387;42.672;23.334;2023-04-09T08:04:33;947.2;;;11.0;80.3
40013;BME280;37387;42.672;23.334;2023-04-09T08:05:33;947.3;;;10.9;80.3
40013;BME280;37387;42.672;23.334;2023-04-09T08:06:33;947.3;;;10.7;78.1
40013;BME280;37387;42.672;23.334;2023-04-09T08:07:33;947.2;;;10.6;79.4
40013;BME280;37387;42.672;23.334;2023-04-09T08:08:33;947.3;;;9.7;78.1
40013;BME280;37387;42.672;23.334;2023-04-09T08:10:33;947.2;;;9.6;85.2
40013;BME280;37387;42.672;23.334;2023-04-09T08:12:33;947.3;;;9.5;86.9
40013;BME280;37387;42.672;23.334;2023-04-09T08:13:33;947.3;;;9.4;87.8
40013;BME280;37387;42.672;23.334;2023-04-09T08:14:33;947.3;;;9.1;89.6
40013;BME280;37387;42.672;23.334;2023-04-09T08:15:33;947.3;;;9.0;93.1
40013;BME280;37387;42.672;23.334;2023-04-09T08:16:33;947.3;;;9.1;95.5
40013;BME280;37387;42.672;23.334;2023-04-09T08:17:32;947.4;;;8.9;94.1
40013;BME280;37387;42.672;23.334;2023-04-09T08:18:33;947.2;;;9.1;94.9
40013;BME280;37387;42.672;23.334;2023-04-09T08:19:33;947.3;;;8.9;94.8
40013;BME280;37387;42.672;23.334;2023-04-09T08:21:32;947.3;;;9.1;96.8
40013;BME280;37387;42.672;23.334;2023-04-09T08:22:32;947.3;;;9.0;96.8
40013;BME280;37387;42.672;23.334;2023-04-09T08:25:32;947.3;;;9.1;96.8
40013;BME280;37387;42.672;23.334;2023-04-09T08:26:33;947.3;;;9.4;96.9
40013;BME280;37387;42.672;23.334;2023-04-09T08:28:32;947.3;;;9.3;94.8
40013;BME280;37387;42.672;23.334;2023-04-09T08:29:33;947.3;;;9.5;94.8
40013;BME280;37387;42.672;23.334;2023-04-09T08:30:33;947.3;;;9.3;93.5
40013;BME280;37387;42.672;23.334;2023-04-09T08:31:33;947.3;;;9.1;94.3
40013;BME280;37387;42.672;23.334;2023-04-09T08:32:33;947.3;;;8.9;96.9
40013;BME280;37387;42.672;23.334;2023-04-09T08:34:33;947.3;;;9.1;98.9
40013;BME280;37387;42.672;23.334;2023-04-09T08:35:33;947.3;;;8.9;99.5
40013;BME280;37387;42.672;23.334;2023-04-09T08:36:33;947.3;;;9.1;98.2
40013;BME280;37387;42.672;23.334;2023-04-09T08:37:32;947.3;;;9.3;98.6
40013;BME280;37387;42.672;23.334;2023-04-09T08:38:32;947.4;;;9.5;97.7
40013;BME280;37387;42.672;23.334;2023-04-09T08:40:33;947.3;;;9.6;95.7
40013;BME280;37387;42.672;23.334;2023-04-09T08:41:33;947.4;;;9.7;93.6
40013;BME280;37387;42.672;23.334;2023-04-09T08:42:33;947.3;;;9.9;93.7
40013;BME280;37387;42.672;23.334;2023-04-09T08:43:33;947.3;;;10.1;93.7
40013;BME280;37387;42.672;23.334;2023-04-09T08:44:33;947.3;;;9.9;90.8
40013;BME280;37387;42.672;23.334;2023-04-09T08:45:33;947.3;;;9.6;92.2
40013;BME280;37387;42.672;23.334;2023-04-09T08:46:34;947.3;;;9.9;93.8
40013;BME280;37387;42.672;23.334;2023-04-09T08:47:33;947.3;;;10.2;92.8
40013;BME280;37387;42.672;23.334;2023-04-09T08:49:32;947.2;;;10.4;92.0
40013;BME280;37387;42.672;23.334;2023-04-09T08:50:32;947.3;;;10.5;89.6
40013;BME280;37387;42.672;23.334;2023-04-09T08:51:32;947.2;;;11.0;87.5
40013;BME280;37387;42.672;23.334;2023-04-09T08:52:33;947.2;;;10.9;85.5
40013;BME280;37387;42.672;23.334;2023-04-09T08:53:32;947.3;;;10.6;84.3
40013;BME280;37387;42.672;23.334;2023-04-09T08:54:33;947.3;;;11.0;85.9
40013;BME280;37387;42.672;23.334;2023-04-09T08:55:33;947.3;;;10.9;85.4
40013;BME280;37387;42.672;23.334;2023-04-09T08:56:32;947.3;;;11.2;85.4
40013;BME280;37387;42.672;23.334;2023-04-09T08:57:36;947.3;;;11.0;82.7
40013;BME280;37387;42.672;23.334;2023-04-09T08:58:32;947.3;;;10.7;81.7
40013;BME280;37387;42.672;23.334;2023-04-09T08:59:33;947.2;;;10.8;84.6
40013;BME280;37387;42.672;23.334;2023-04-09T09:00:33;947.2;;;11.1;84.5
40013;BME280;37387;42.672;23.334;2023-04-09T09:01:33;947.2;;;11.2;82.5
40013;BME280;37387;42.672;23.334;2023-04-09T09:02:32;947.3;;;11.3;80.6
40013;BME280;37387;42.672;23.334;2023-04-09T09:03:33;947.3;;;11.1;81.4
40013;BME280;37387;42.672;23.334;2023-04-09T09:04:42;947.3;;;10.6;81.4
40013;BME280;37387;42.672;23.334;2023-04-09T09:05:34;947.2;;;11.1;86.0
40013;BME280;37387;42.672;23.334;2023-04-09T09:06:33;947.2;;;10.6;82.7
40013;BME280;37387;42.672;23.334;2023-04-09T09:07:32;947.2;;;10.8;84.8
40013;BME280;37387;42.672;23.334;2023-04-09T09:09:33;947.2;;;11.2;83.5
40013;BME280;37387;42.672;23.334;2023-04-09T09:10:36;947.2;;;10.9;83.2
40013;BME280;37387;42.672;23.334;2023-04-09T09:11:33;947.2;;;11.4;82.2
40013;BME280;37387;42.672;23.334;2023-04-09T09:12:33;947.2;;;11.2;80.6
40013;BME280;37387;42.672;23.334;2023-04-09T09:13:32;947.2;;;10.9;80.4
40013;BME280;37387;42.672;23.334;2023-04-09T09:14:33;947.1;;;11.4;80.7
40013;BME280;37387;42.672;23.334;2023-04-09T09:15:33;947.1;;;12.2;81.4
40013;BME280;37387;42.672;23.334;2023-04-09T09:16:33;947.1;;;12.6;77.0
40013;BME280;37387;42.672;23.334;2023-04-09T09:17:33;947.1;;;13.0;72.5
40013;BME280;37387;42.672;23.334;2023-04-09T09:18:36;947.1;;;13.1;69.9
40013;BME280;37387;42.672;23.334;2023-04-09T09:19:33;947.2;;;13.4;68.6
40013;BME280;37387;42.672;23.334;2023-04-09T09:20:33;947.2;;;12.7;65.8
40013;BME280;37387;42.672;23.334;2023-04-09T09:21:33;947.2;;;12.1;68.2
40013;BME280;37387;42.672;23.334;2023-04-09T09:23:33;947.1;;;11.2;74.9
40013;BME280;37387;42.672;23.334;2023-04-09T09:24:33;947.1;;;11.6;78.2
40013;BME280;37387;42.672;23.334;2023-04-09T09:25:36;947.2;;;11.0;75.2
40013;BME280;37387;42.672;23.334;2023-04-09T09:26:33;947.1;;;11.4;78.2
40013;BME280;37387;42.672;23.334;2023-04-09T09:27:33;947.1;;;12.1;77.8
40013;BME280;37387;42.672;23.334;2023-04-09T09:28:33;947.0;;;12.6;74.9
40013;BME280;37387;42.672;23.334;2023-04-09T09:29:34;947.0;;;13.3;71.4
40013;BME280;37387;42.672;23.334;2023-04-09T09:30:33;947.1;;;13.5;69.1
40013;BME280;37387;42.672;23.334;2023-04-09T09:31:33;947.2;;;12.4;66.0
40013;BME280;37387;42.672;23.334;2023-04-09T09:32:33;947.1;;;12.5;68.5
40013;BME280;37387;42.672;23.334;2023-04-09T09:33:33;947.1;;;13.1;70.1
40013;BME280;37387;42.672;23.334;2023-04-09T09:34:32;947.1;;;13.7;68.4
40013;BME280;37387;42.672;23.334;2023-04-09T09:37:33;947.1;;;13.4;62.4
40013;BME280;37387;42.672;23.334;2023-04-09T09:38:32;947.1;;;12.5;64.7
40013;BME280;37387;42.672;23.334;2023-04-09T09:41:32;947.0;;;12.0;69.0
40013;BME280;37387;42.672;23.334;2023-04-09T09:42:32;946.9;;;12.1;70.4
40013;BME280;37387;42.672;23.334;2023-04-09T09:43:38;946.9;;;11.9;70.4
40013;BME280;37387;42.672;23.334;2023-04-09T09:46:34;947.0;;;12.2;71.5
40013;BME280;37387;42.672;23.334;2023-04-09T09:47:33;947.0;;;12.4;71.0
40013;BME280;37387;42.672;23.334;2023-04-09T09:48:33;946.9;;;12.8;70.9
40013;BME280;37387;42.672;23.334;2023-04-09T09:49:33;947.0;;;13.1;68.8
40013;BME280;37387;42.672;23.334;2023-04-09T09:50:33;947.0;;;13.2;66.4
40013;BME280;37387;42.672;23.334;2023-04-09T09:51:34;946.9;;;13.6;65.3
40013;BME280;37387;42.672;23.334;2023-04-09T09:53:33;947.0;;;12.5;63.5
40013;BME280;37387;42.672;23.334;2023-04-09T09:54:34;946.9;;;12.6;66.3
40013;BME280;37387;42.672;23.334;2023-04-09T09:55:33;946.9;;;12.5;66.6
40013;BME280;37387;42.672;23.334;2023-04-09T09:56:34;947.0;;;12.6;66.9
40013;BME280;37387;42.672;23.334;2023-04-09T09:57:33;947.0;;;12.4;66.0
40013;BME280;37387;42.672;23.334;2023-04-09T09:58:35;946.9;;;12.5;66.6
40013;BME280;37387;42.672;23.334;2023-04-09T09:59:33;946.9;;;12.6;67.0
40013;BME280;37387;42.672;23.334;2023-04-09T10:00:33;946.9;;;12.8;65.8
40013;BME280;37387;42.672;23.334;2023-04-09T10:01:33;946.9;;;12.7;64.1
40013;BME280;37387;42.672;23.334;2023-04-09T10:02:34;946.9;;;12.8;64.0
40013;BME280;37387;42.672;23.334;2023-04-09T10:03:33;946.8;;;12.7;64.4
40013;BME280;37387;42.672;23.334;2023-04-09T10:04:33;946.7;;;12.9;62.6
40013;BME280;37387;42.672;23.334;2023-04-09T10:06:33;946.9;;;13.2;63.2
40013;BME280;37387;42.672;23.334;2023-04-09T10:07:32;946.9;;;13.1;62.6
40013;BME280;37387;42.672;23.334;2023-04-09T10:09:33;946.7;;;13.0;60.8